createdAt,value
2023-01-03T00:01:08.448Z,6.36
2023-01-03T00:02:40.046Z,6.34
2023-01-03T00:04:11.686Z,6.35
2023-01-03T00:05:43.852Z,6.35
2023-01-03T00:07:15.370Z,6.35
2023-01-03T00:08:46.996Z,6.32
2023-01-03T00:10:18.648Z,6.30
2023-01-03T00:12:08.966Z,6.27
2023-01-03T00:13:40.514Z,6.29
2023-01-03T00:15:15.788Z,6.31
2023-01-03T00:16:48.671Z,6.31
2023-01-03T00:18:20.242Z,6.33
2023-01-03T00:19:51.711Z,6.40
2023-01-03T00:21:23.242Z,6.41
2023-01-03T00:22:54.762Z,6.41
2023-01-03T00:24:26.273Z,6.39
2023-01-03T00:25:57.847Z,6.39
2023-01-03T00:27:29.505Z,6.37
2023-01-03T00:29:01.071Z,6.36
2023-01-03T00:30:32.696Z,6.36
2023-01-03T00:32:04.410Z,6.35
2023-01-03T00:33:36.778Z,6.35
2023-01-03T00:35:08.697Z,6.33
2023-01-03T00:36:40.334Z,6.33
2023-01-03T00:38:11.920Z,6.28
2023-01-03T00:39:44.077Z,6.26
2023-01-03T00:41:16.355Z,6.25
2023-01-03T00:43:06.517Z,6.23
2023-01-03T00:44:38.098Z,6.20
2023-01-03T00:46:10.089Z,6.22
2023-01-03T00:47:41.734Z,6.22
2023-01-03T00:49:13.656Z,6.25
2023-01-03T00:50:45.194Z,6.26
2023-01-03T00:52:16.850Z,6.26
2023-01-03T00:53:48.797Z,6.27
2023-01-03T00:55:20.307Z,6.26
2023-01-03T00:56:52.106Z,6.23
2023-01-03T00:58:23.568Z,6.20
2023-01-03T00:59:55.067Z,6.16
2023-01-03T01:01:28.144Z,6.14
2023-01-03T01:02:59.876Z,6.17
2023-01-03T01:04:31.606Z,6.16
2023-01-03T01:06:16.828Z,6.16
2023-01-03T01:07:48.281Z,6.12
2023-01-03T01:09:23.487Z,6.10
2023-01-03T01:11:04.062Z,6.09
2023-01-03T01:12:35.571Z,6.07
2023-01-03T01:14:22.471Z,6.04
2023-01-03T01:15:54.033Z,6.01
2023-01-03T01:17:28.349Z,5.98
2023-01-03T01:19:00.132Z,5.97
2023-01-03T01:20:31.615Z,6.00
2023-01-03T01:22:03.200Z,5.99
2023-01-03T01:23:35.064Z,5.96
2023-01-03T01:25:06.717Z,5.93
2023-01-03T01:26:38.331Z,5.90
2023-01-03T01:28:09.950Z,5.89
2023-01-03T01:29:41.739Z,5.85
2023-01-03T01:31:14.630Z,5.81
2023-01-03T01:32:46.176Z,5.76
2023-01-03T01:34:18.102Z,5.72
2023-01-03T01:35:49.647Z,5.67
2023-01-03T01:37:21.229Z,5.63
2023-01-03T01:38:54.376Z,5.60
2023-01-03T01:40:26.334Z,5.57
2023-01-03T01:42:23.179Z,5.53
2023-01-03T01:44:15.566Z,5.50
2023-01-03T01:45:47.056Z,5.56
2023-01-03T01:47:30.249Z,5.53
2023-01-03T01:49:02.689Z,5.48
2023-01-03T01:50:40.908Z,5.48
2023-01-03T01:52:13.167Z,5.45
2023-01-03T01:53:44.628Z,5.45
2023-01-03T01:55:16.992Z,5.42
2023-01-03T01:56:49.299Z,5.42
2023-01-03T01:58:21.359Z,5.41
2023-01-03T01:59:52.877Z,5.37
2023-01-03T02:01:24.772Z,5.38
2023-01-03T02:02:56.698Z,5.39
2023-01-03T02:04:29.567Z,5.42
2023-01-03T02:06:01.724Z,5.44
2023-01-03T02:07:34.255Z,5.41
2023-01-03T02:09:05.761Z,5.39
2023-01-03T02:10:45.459Z,5.37
2023-01-03T02:12:35.359Z,5.34
2023-01-03T02:14:10.119Z,5.29
2023-01-03T02:15:44.518Z,5.26
2023-01-03T02:17:20.933Z,5.23
2023-01-03T02:18:52.439Z,5.21
2023-01-03T02:20:23.962Z,5.20
2023-01-03T02:22:14.256Z,5.15
2023-01-03T02:23:53.115Z,5.11
2023-01-03T02:25:30.189Z,5.07
2023-01-03T02:27:05.299Z,5.03
2023-01-03T02:28:40.039Z,5.04
2023-01-03T02:30:15.002Z,5.05
2023-01-03T02:32:12.505Z,5.06
2023-01-03T02:34:10.644Z,5.09
2023-01-03T02:36:00.482Z,5.06
2023-01-03T02:37:50.912Z,4.99
2023-01-03T02:39:28.386Z,4.97
2023-01-03T02:41:12.091Z,4.96
2023-01-03T02:42:58.969Z,4.96
2023-01-03T02:44:32.540Z,4.94
2023-01-03T02:46:14.206Z,4.92
2023-01-03T02:47:50.463Z,4.92
2023-01-03T02:49:23.432Z,4.92
2023-01-03T02:50:55.237Z,4.92
2023-01-03T02:52:27.407Z,4.95
2023-01-03T02:53:58.924Z,4.96
2023-01-03T02:55:30.509Z,4.94
2023-01-03T02:57:03.648Z,4.92
2023-01-03T02:58:35.481Z,4.90
2023-01-03T03:00:11.071Z,4.90
2023-01-03T03:01:45.179Z,4.93
2023-01-03T03:03:17.977Z,4.93
2023-01-03T03:04:50.933Z,4.91
2023-01-03T03:06:25.689Z,4.87
2023-01-03T03:07:57.218Z,4.87
2023-01-03T03:09:29.689Z,4.86
2023-01-03T03:11:19.665Z,4.87
2023-01-03T03:13:09.820Z,4.88
2023-01-03T03:14:48.322Z,4.87
2023-01-03T03:16:42.384Z,4.86
2023-01-03T03:18:18.529Z,4.83
2023-01-03T03:20:10.789Z,4.84
2023-01-03T03:22:00.995Z,4.84
2023-01-03T03:23:51.821Z,4.84
2023-01-03T03:25:25.945Z,4.85
2023-01-03T03:26:58.084Z,4.81
2023-01-03T03:28:36.119Z,4.79
2023-01-03T03:30:08.642Z,4.71
2023-01-03T03:31:41.199Z,4.64
2023-01-03T03:33:13.166Z,4.55
2023-01-03T03:34:44.676Z,4.47
2023-01-03T03:36:37.174Z,4.36
2023-01-03T03:38:09.008Z,4.30
2023-01-03T03:39:59.153Z,4.30
2023-01-03T03:41:58.636Z,4.31
2023-01-03T03:43:50.069Z,4.28
2023-01-03T03:45:32.792Z,4.23
2023-01-03T03:47:07.960Z,4.18
2023-01-03T03:48:58.014Z,4.14
2023-01-03T03:50:35.503Z,4.10
2023-01-03T03:52:08.428Z,4.08
2023-01-03T03:53:39.889Z,4.06
2023-01-03T03:55:13.680Z,4.04
2023-01-03T03:56:46.625Z,4.00
2023-01-03T03:58:21.848Z,3.96
2023-01-03T03:59:55.375Z,3.92
2023-01-03T04:01:27.054Z,3.91
2023-01-03T04:02:59.518Z,3.92
2023-01-03T04:04:35.936Z,3.94
2023-01-03T04:06:09.450Z,3.95
2023-01-03T04:07:40.958Z,4.03
2023-01-03T04:09:12.540Z,4.06
2023-01-03T04:10:44.170Z,4.06
2023-01-03T04:12:15.758Z,4.07
2023-01-03T04:13:47.319Z,4.06
2023-01-03T04:15:18.896Z,4.11
2023-01-03T04:16:50.425Z,4.10
2023-01-03T04:18:22.043Z,4.12
2023-01-03T04:19:53.600Z,4.11
2023-01-03T04:21:25.179Z,4.07
2023-01-03T04:22:56.985Z,4.08
2023-01-03T04:24:28.556Z,4.00
2023-01-03T04:26:00.112Z,3.93
2023-01-03T04:27:31.614Z,3.90
2023-01-03T04:29:03.263Z,3.84
2023-01-03T04:30:35.211Z,3.83
2023-01-03T04:32:07.309Z,3.82
2023-01-03T04:33:39.516Z,3.82
2023-01-03T04:35:11.391Z,3.82
2023-01-03T04:36:42.932Z,3.83
2023-01-03T04:38:14.581Z,3.79
2023-01-03T04:39:46.168Z,3.73
2023-01-03T04:41:18.361Z,3.67
2023-01-03T04:43:08.580Z,3.58
2023-01-03T04:44:40.177Z,3.50
2023-01-03T04:46:11.889Z,3.43
2023-01-03T04:47:43.545Z,3.29
2023-01-03T04:49:15.454Z,3.24
2023-01-03T04:50:57.082Z,3.18
2023-01-03T04:52:29.056Z,3.13
2023-01-03T04:54:00.828Z,3.11
2023-01-03T04:55:32.342Z,3.08
2023-01-03T04:57:03.863Z,3.09
2023-01-03T04:58:35.419Z,3.10
2023-01-03T05:00:07.187Z,3.13
2023-01-03T05:01:38.961Z,3.15
2023-01-03T05:03:10.659Z,3.17
2023-01-03T05:04:42.294Z,3.17
2023-01-03T05:06:14.040Z,3.22
2023-01-03T05:07:45.503Z,3.25
2023-01-03T05:09:17.149Z,3.27
2023-01-03T05:10:48.773Z,3.25
2023-01-03T05:12:20.544Z,3.24
2023-01-03T05:13:52.162Z,3.20
2023-01-03T05:15:23.719Z,3.17
2023-01-03T05:16:55.323Z,3.19
2023-01-03T05:18:27.201Z,3.15
2023-01-03T05:20:17.653Z,3.14
2023-01-03T05:22:07.814Z,3.09
2023-01-03T05:23:57.993Z,3.02
2023-01-03T05:25:47.915Z,3.00
2023-01-03T05:27:19.457Z,2.93
2023-01-03T05:28:52.094Z,2.88
2023-01-03T05:30:23.853Z,2.83
2023-01-03T05:31:55.566Z,2.80
2023-01-03T05:33:27.212Z,2.78
2023-01-03T05:34:58.905Z,2.77
2023-01-03T05:36:30.415Z,2.81
2023-01-03T05:38:01.914Z,2.83
2023-01-03T05:39:33.359Z,2.85
2023-01-03T05:41:04.896Z,2.86
2023-01-03T05:42:36.438Z,2.82
2023-01-03T05:44:07.970Z,2.83
2023-01-03T05:45:39.655Z,2.84
2023-01-03T05:47:11.175Z,2.85
2023-01-03T05:48:43.530Z,2.84
2023-01-03T05:50:15.063Z,2.82
2023-01-03T05:51:46.512Z,2.79
2023-01-03T05:53:18.185Z,2.78
2023-01-03T05:54:49.736Z,2.77
2023-01-03T05:56:21.180Z,2.73
2023-01-03T05:57:53.013Z,2.68
2023-01-03T05:59:24.786Z,2.69
2023-01-03T06:00:56.319Z,2.70
2023-01-03T06:02:28.339Z,2.68
2023-01-03T06:03:59.943Z,2.65
2023-01-03T06:05:31.440Z,2.65
2023-01-03T06:07:02.981Z,2.63
2023-01-03T06:08:34.477Z,2.64
2023-01-03T06:10:06.221Z,2.63
2023-01-03T06:11:39.111Z,2.62
2023-01-03T06:13:10.707Z,2.56
2023-01-03T06:14:42.162Z,2.54
2023-01-03T06:16:35.223Z,2.54
2023-01-03T06:18:06.789Z,2.52
2023-01-03T06:19:38.315Z,2.51
2023-01-03T06:21:09.800Z,2.47
2023-01-03T06:22:41.288Z,2.43
2023-01-03T06:24:12.736Z,2.39
2023-01-03T06:25:44.268Z,2.42
2023-01-03T06:27:15.842Z,2.46
2023-01-03T06:28:47.411Z,2.51
2023-01-03T06:30:18.936Z,2.57
2023-01-03T06:31:50.426Z,2.62
2023-01-03T06:33:21.937Z,2.65
2023-01-03T06:34:53.565Z,2.74
2023-01-03T06:36:26.313Z,2.83
2023-01-03T06:37:57.814Z,2.89
2023-01-03T06:39:29.584Z,2.94
2023-01-03T06:41:01.119Z,2.98
2023-01-03T06:42:45.420Z,2.98
2023-01-03T06:44:16.959Z,2.88
2023-01-03T06:46:07.206Z,2.86
2023-01-03T06:47:57.317Z,2.82
2023-01-03T06:49:47.816Z,2.80
2023-01-03T06:51:38.441Z,2.77
2023-01-03T06:53:12.948Z,2.72
2023-01-03T06:54:44.510Z,2.69
2023-01-03T06:56:16.108Z,2.60
2023-01-03T06:57:47.613Z,2.59
2023-01-03T06:59:19.244Z,2.57
2023-01-03T07:00:50.703Z,2.61
2023-01-03T07:02:22.510Z,2.65
2023-01-03T07:03:54.264Z,2.67
2023-01-03T07:05:25.991Z,2.65
2023-01-03T07:06:57.648Z,2.65
2023-01-03T07:08:29.153Z,2.64
2023-01-03T07:10:00.585Z,2.63
2023-01-03T07:11:32.260Z,2.65
2023-01-03T07:13:22.527Z,2.69
2023-01-03T07:14:54.190Z,2.73
2023-01-03T07:16:27.111Z,2.78
2023-01-03T07:17:58.708Z,2.91
2023-01-03T07:19:30.410Z,2.97
2023-01-03T07:21:02.190Z,3.03
2023-01-03T07:22:33.736Z,3.10
2023-01-03T07:24:05.867Z,3.17
2023-01-03T07:25:41.551Z,3.20
2023-01-03T07:27:13.217Z,3.21
2023-01-03T07:28:44.835Z,3.19
2023-01-03T07:30:16.593Z,3.19
2023-01-03T07:31:48.164Z,3.16
2023-01-03T07:33:19.811Z,3.14
2023-01-03T07:34:51.393Z,3.16
2023-01-03T07:36:23.040Z,3.14
2023-01-03T07:37:54.633Z,3.17
2023-01-03T07:39:26.193Z,3.18
2023-01-03T07:40:58.587Z,3.21
2023-01-03T07:42:48.581Z,3.23
2023-01-03T07:44:20.202Z,3.31
2023-01-03T07:45:51.930Z,3.37
2023-01-03T07:47:23.620Z,3.41
2023-01-03T07:48:55.591Z,3.48
2023-01-03T07:50:27.129Z,3.56
2023-01-03T07:51:58.733Z,3.63
2023-01-03T07:53:31.968Z,3.60
2023-01-03T07:55:03.531Z,3.60
2023-01-03T07:56:35.185Z,3.63
2023-01-03T07:58:06.775Z,3.71
2023-01-03T07:59:38.450Z,3.78
2023-01-03T08:01:13.861Z,3.85
2023-01-03T08:02:45.701Z,3.90
2023-01-03T08:04:17.333Z,3.96
2023-01-03T08:05:48.878Z,4.00
2023-01-03T08:07:20.470Z,3.95
2023-01-03T08:09:12.157Z,3.89
2023-01-03T08:11:02.148Z,3.88
2023-01-03T08:12:52.043Z,3.88
2023-01-03T08:14:26.201Z,3.88
2023-01-03T08:15:58.751Z,3.80
2023-01-03T08:17:30.294Z,3.80
2023-01-03T08:19:01.923Z,3.86
2023-01-03T08:20:33.434Z,3.85
2023-01-03T08:22:05.115Z,3.93
2023-01-03T08:23:36.603Z,4.03
2023-01-03T08:25:08.384Z,4.11
2023-01-03T08:26:39.909Z,4.14
2023-01-03T08:28:14.484Z,4.19
2023-01-03T08:29:46.562Z,4.24
2023-01-03T08:31:18.827Z,4.33
2023-01-03T08:32:50.448Z,4.40
2023-01-03T08:34:29.135Z,4.45
2023-01-03T08:36:03.103Z,4.54
2023-01-03T08:37:34.604Z,4.64
2023-01-03T08:39:06.900Z,4.73
2023-01-03T08:40:42.107Z,4.84
2023-01-03T08:42:14.518Z,4.88
2023-01-03T08:43:45.981Z,4.88
2023-01-03T08:45:17.676Z,4.88
2023-01-03T08:46:49.901Z,4.89
2023-01-03T08:48:21.675Z,4.88
2023-01-03T08:49:53.297Z,4.90
2023-01-03T08:51:26.788Z,4.96
2023-01-03T08:52:58.461Z,4.99
2023-01-03T08:54:30.044Z,5.06
2023-01-03T08:56:01.571Z,5.14
2023-01-03T08:57:33.055Z,5.21
2023-01-03T08:59:04.858Z,5.23
2023-01-03T09:00:39.986Z,5.29
2023-01-03T09:02:11.728Z,5.27
2023-01-03T09:03:43.622Z,5.36
2023-01-03T09:05:15.825Z,5.44
2023-01-03T09:06:47.402Z,5.53
2023-01-03T09:08:18.944Z,5.65
2023-01-03T09:09:50.429Z,5.79
2023-01-03T09:11:21.921Z,5.89
2023-01-03T09:12:53.464Z,6.06
2023-01-03T09:14:25.043Z,6.25
2023-01-03T09:16:06.616Z,6.35
2023-01-03T09:17:38.230Z,6.43
2023-01-03T09:19:09.760Z,6.46
2023-01-03T09:20:41.527Z,6.51
2023-01-03T09:22:13.142Z,6.60
2023-01-03T09:23:44.754Z,6.72
2023-01-03T09:25:16.603Z,6.75
2023-01-03T09:26:54.210Z,6.78
2023-01-03T09:28:26.384Z,6.85
2023-01-03T09:29:57.881Z,7.00
2023-01-03T09:31:35.085Z,7.08
2023-01-03T09:33:06.850Z,7.20
2023-01-03T09:34:38.401Z,7.25
2023-01-03T09:36:11.504Z,7.19
2023-01-03T09:37:48.722Z,7.26
2023-01-03T09:39:20.589Z,7.31
2023-01-03T09:40:59.572Z,7.36
2023-01-03T09:42:49.621Z,7.45
2023-01-03T09:44:21.172Z,7.50
2023-01-03T09:45:53.435Z,7.64
2023-01-03T09:47:25.359Z,7.76
2023-01-03T09:48:57.062Z,7.91
2023-01-03T09:50:44.222Z,8.01
2023-01-03T09:52:40.162Z,8.08
2023-01-03T09:54:42.555Z,8.12
2023-01-03T09:56:32.645Z,8.12
2023-01-03T09:58:43.729Z,8.00
2023-01-03T10:00:38.061Z,8.01
2023-01-03T10:02:29.774Z,7.93
2023-01-03T10:04:23.319Z,8.04
2023-01-03T10:05:56.469Z,8.03
2023-01-03T10:07:28.169Z,7.99
2023-01-03T10:09:12.157Z,8.07
2023-01-03T10:10:43.684Z,8.21
2023-01-03T10:12:33.476Z,8.35
2023-01-03T10:14:15.347Z,8.42
2023-01-03T10:16:08.225Z,8.54
2023-01-03T10:17:48.979Z,8.70
2023-01-03T10:19:26.293Z,8.81
2023-01-03T10:21:03.595Z,8.94
2023-01-03T10:22:35.237Z,9.09
2023-01-03T10:24:25.684Z,9.18
2023-01-03T10:25:57.413Z,9.33
2023-01-03T10:27:30.131Z,9.43
2023-01-03T10:29:01.836Z,9.55
2023-01-03T10:30:59.436Z,9.66
2023-01-03T10:32:35.229Z,9.80
2023-01-03T10:34:07.120Z,9.77
2023-01-03T10:35:38.726Z,9.86
2023-01-03T10:37:19.870Z,9.94
2023-01-03T10:39:05.013Z,9.97
2023-01-03T10:40:42.635Z,10.14
2023-01-03T10:42:20.664Z,10.27
2023-01-03T10:44:01.850Z,10.42
2023-01-03T10:45:41.558Z,10.59
2023-01-03T10:47:16.756Z,10.71
2023-01-03T10:50:41.150Z,10.82
2023-01-03T10:52:14.805Z,10.86
2023-01-03T10:53:46.823Z,10.96
2023-01-03T10:55:19.166Z,11.04
2023-01-03T10:56:51.783Z,11.17
2023-01-03T10:58:27.994Z,11.24
2023-01-03T11:00:02.526Z,11.43
2023-01-03T11:01:34.256Z,11.60
2023-01-03T11:03:16.677Z,11.78
2023-01-03T11:04:48.499Z,11.93
2023-01-03T11:06:20.116Z,12.18
2023-01-03T11:07:55.385Z,12.44
2023-01-03T11:09:28.244Z,12.72
2023-01-03T11:10:59.954Z,12.91
2023-01-03T11:12:38.419Z,13.06
2023-01-03T11:14:10.148Z,13.17
2023-01-03T11:15:41.750Z,13.28
2023-01-03T11:17:16.500Z,13.33
2023-01-03T11:19:01.801Z,13.45
2023-01-03T11:20:37.276Z,13.57
2023-01-03T11:22:25.053Z,13.66
2023-01-03T11:24:11.610Z,13.80
2023-01-03T11:26:03.572Z,13.91
2023-01-03T11:27:38.247Z,14.06
2023-01-03T11:29:15.949Z,14.23
2023-01-03T11:30:47.612Z,14.33
2023-01-03T11:32:23.052Z,14.44
2023-01-03T11:34:06.356Z,14.66
2023-01-03T11:35:43.607Z,14.84
2023-01-03T11:37:18.165Z,15.08
2023-01-03T11:38:55.761Z,15.25
2023-01-03T11:40:34.061Z,15.36
2023-01-03T11:42:24.026Z,15.48
2023-01-03T11:44:04.091Z,15.66
2023-01-03T11:45:35.599Z,15.69
2023-01-03T11:47:15.538Z,15.83
2023-01-03T11:48:50.216Z,15.91
2023-01-03T11:50:40.808Z,16.06
2023-01-03T11:52:12.459Z,16.16
2023-01-03T11:53:49.740Z,16.16
2023-01-03T11:55:24.437Z,16.23
2023-01-03T11:56:56.166Z,16.32
2023-01-03T11:58:27.696Z,16.44
2023-01-03T12:00:09.137Z,16.53
2023-01-03T12:01:53.406Z,16.60
2023-01-03T12:03:31.210Z,16.64
2023-01-03T12:05:21.657Z,16.70
2023-01-03T12:07:36.748Z,16.84
2023-01-03T12:09:07.325Z,17.06
2023-01-03T12:10:42.158Z,17.14
2023-01-03T12:12:13.858Z,17.21
2023-01-03T12:13:55.385Z,17.22
2023-01-03T12:15:30.018Z,17.15
2023-01-03T12:17:21.853Z,17.15
2023-01-03T12:18:55.429Z,17.22
2023-01-03T12:20:28.351Z,17.33
2023-01-03T12:22:18.353Z,17.44
2023-01-03T12:23:52.887Z,17.48
2023-01-03T12:25:44.074Z,17.42
2023-01-03T12:27:18.094Z,17.48
2023-01-03T12:28:51.412Z,17.53
2023-01-03T12:30:34.046Z,17.62
2023-01-03T12:32:25.951Z,17.62
2023-01-03T12:34:21.420Z,17.63
2023-01-03T12:36:01.522Z,17.76
2023-01-03T12:37:34.057Z,17.94
2023-01-03T12:39:30.848Z,18.07
2023-01-03T12:41:22.855Z,18.13
2023-01-03T12:42:57.433Z,18.23
2023-01-03T12:44:36.401Z,18.35
2023-01-03T12:46:13.285Z,18.44
2023-01-03T12:47:45.425Z,18.55
2023-01-03T12:49:18.599Z,18.57
2023-01-03T12:50:50.627Z,18.57
2023-01-03T12:52:22.648Z,18.52
2023-01-03T12:54:05.065Z,18.55
2023-01-03T12:55:42.514Z,18.61
2023-01-03T12:57:17.188Z,18.65
2023-01-03T12:58:51.563Z,18.67
2023-01-03T13:00:38.054Z,18.75
2023-01-03T13:02:22.156Z,18.76
2023-01-03T13:03:55.799Z,18.83
2023-01-03T13:05:36.080Z,18.93
2023-01-03T13:07:16.028Z,19.00
2023-01-03T13:08:59.875Z,19.02
2023-01-03T13:10:32.183Z,19.02
2023-01-03T13:12:07.452Z,19.02
2023-01-03T13:13:39.075Z,19.05
2023-01-03T13:15:33.495Z,19.03
2023-01-03T13:17:15.692Z,19.04
2023-01-03T13:18:47.733Z,18.89
2023-01-03T13:20:25.203Z,18.84
2023-01-03T13:22:00.063Z,18.85
2023-01-03T13:23:52.411Z,18.89
2023-01-03T13:25:28.186Z,18.88
2023-01-03T13:27:17.900Z,18.91
2023-01-03T13:28:52.042Z,18.89
2023-01-03T13:30:24.384Z,18.89
2023-01-03T13:32:02.817Z,18.88
2023-01-03T13:33:42.392Z,18.86
2023-01-03T13:35:19.061Z,18.86
2023-01-03T13:37:02.949Z,18.97
2023-01-03T13:38:37.428Z,19.04
2023-01-03T13:40:52.137Z,19.08
2023-01-03T13:42:36.456Z,19.04
2023-01-03T13:44:15.939Z,19.02
2023-01-03T13:45:49.141Z,18.98
2023-01-03T13:47:26.737Z,19.02
2023-01-03T13:49:02.359Z,19.01
2023-01-03T13:50:34.631Z,18.92
2023-01-03T13:52:08.601Z,18.91
2023-01-03T13:54:01.004Z,18.93
2023-01-03T13:55:39.036Z,18.92
2023-01-03T13:57:30.407Z,18.83
2023-01-03T13:59:02.014Z,18.78
2023-01-03T14:00:33.590Z,18.76
2023-01-03T14:02:24.167Z,18.63
2023-01-03T14:03:58.724Z,18.61
2023-01-03T14:05:33.189Z,18.63
2023-01-03T14:07:13.561Z,18.59
2023-01-03T14:09:17.666Z,18.60
2023-01-03T14:10:49.276Z,18.58
2023-01-03T14:12:28.201Z,18.54
2023-01-03T14:14:01.119Z,18.55
2023-01-03T14:15:33.041Z,18.54
2023-01-03T14:17:04.988Z,18.52
2023-01-03T14:18:36.720Z,18.45
2023-01-03T14:20:09.765Z,18.40
2023-01-03T14:21:50.295Z,18.34
2023-01-03T14:23:58.616Z,18.23
2023-01-03T14:25:34.543Z,18.16
2023-01-03T14:27:11.500Z,18.06
2023-01-03T14:28:50.263Z,17.96
2023-01-03T14:30:22.582Z,17.88
2023-01-03T14:31:56.040Z,17.77
2023-01-03T14:33:47.862Z,17.72
2023-01-03T14:35:32.691Z,17.66
2023-01-03T14:37:05.721Z,17.55
2023-01-03T14:38:37.320Z,17.48
2023-01-03T14:40:18.871Z,17.38
2023-01-03T14:41:50.551Z,17.33
2023-01-03T14:43:22.111Z,17.27
2023-01-03T14:44:57.259Z,17.16
2023-01-03T14:46:29.494Z,17.01
2023-01-03T14:48:01.019Z,16.89
2023-01-03T14:49:32.510Z,16.79
2023-01-03T14:51:04.547Z,16.69
2023-01-03T14:52:38.434Z,16.59
2023-01-03T14:54:12.035Z,16.49
2023-01-03T14:55:46.794Z,16.34
2023-01-03T14:57:19.638Z,16.20
2023-01-03T14:58:51.296Z,16.05
2023-01-03T15:00:32.116Z,15.89
2023-01-03T15:02:12.274Z,15.69
2023-01-03T15:03:44.951Z,15.56
2023-01-03T15:05:25.754Z,15.41
2023-01-03T15:07:03.398Z,15.25
2023-01-03T15:08:39.664Z,15.10
2023-01-03T15:10:11.197Z,14.91
2023-01-03T15:11:59.542Z,14.78
2023-01-03T15:13:35.389Z,14.69
2023-01-03T15:15:08.021Z,14.58
2023-01-03T15:16:42.434Z,14.42
2023-01-03T15:18:20.261Z,14.35
2023-01-03T15:19:54.458Z,14.25
2023-01-03T15:21:26.213Z,14.18
2023-01-03T15:22:57.806Z,14.12
2023-01-03T15:24:29.327Z,14.05
2023-01-03T15:26:03.790Z,13.88
2023-01-03T15:27:37.934Z,13.72
2023-01-03T15:29:16.627Z,13.57
2023-01-03T15:30:49.241Z,13.43
2023-01-03T15:32:20.983Z,13.32
2023-01-03T15:34:22.004Z,13.28
2023-01-03T15:35:53.670Z,13.23
2023-01-03T15:37:25.438Z,13.20
2023-01-03T15:38:57.050Z,13.17
2023-01-03T15:40:31.590Z,13.14
2023-01-03T15:44:14.882Z,13.09
2023-01-03T15:45:48.390Z,12.99
2023-01-03T15:47:20.015Z,12.90
2023-01-03T15:48:54.977Z,12.84
2023-01-03T15:50:27.987Z,12.82
2023-01-03T15:51:59.811Z,12.78
2023-01-03T15:53:37.810Z,12.75
2023-01-03T15:55:13.178Z,12.75
2023-01-03T15:57:07.334Z,12.69
2023-01-03T15:58:38.940Z,12.60
2023-01-03T16:00:10.995Z,12.53
2023-01-03T16:01:42.923Z,12.41
2023-01-03T16:03:20.702Z,12.34
2023-01-03T16:04:53.182Z,12.31
2023-01-03T16:06:24.945Z,12.29
2023-01-03T16:07:56.594Z,12.33
2023-01-03T16:09:31.566Z,12.33
2023-01-03T16:11:04.240Z,12.37
2023-01-03T16:12:36.676Z,12.39
2023-01-03T16:14:36.761Z,12.44
2023-01-03T16:16:08.645Z,12.46
2023-01-03T16:17:40.765Z,12.49
2023-01-03T16:19:18.285Z,12.50
2023-01-03T16:20:49.835Z,12.52
2023-01-03T16:22:34.553Z,12.50
2023-01-03T16:24:06.957Z,12.48
2023-01-03T16:25:39.132Z,12.46
2023-01-03T16:27:16.810Z,12.45
2023-01-03T16:28:48.930Z,12.42
2023-01-03T16:30:20.635Z,12.39
2023-01-03T16:31:52.331Z,12.38
2023-01-03T16:33:24.004Z,12.34
2023-01-03T16:34:59.893Z,12.33
2023-01-03T16:36:36.587Z,12.29
2023-01-03T16:38:13.469Z,12.26
2023-01-03T16:39:48.265Z,12.19
2023-01-03T16:41:20.642Z,12.15
2023-01-03T16:42:52.495Z,12.10
2023-01-03T16:44:26.376Z,12.09
2023-01-03T16:45:58.744Z,12.10
2023-01-03T16:47:31.215Z,12.08
2023-01-03T16:49:02.768Z,12.06
2023-01-03T16:50:38.363Z,12.03
2023-01-03T16:52:13.087Z,12.00
2023-01-03T16:53:48.128Z,11.98
2023-01-03T16:55:23.667Z,11.95
2023-01-03T16:56:55.351Z,11.97
2023-01-03T16:58:27.377Z,11.97
2023-01-03T16:59:58.947Z,11.96
2023-01-03T17:01:30.901Z,11.94
2023-01-03T17:03:03.453Z,11.94
2023-01-03T17:04:35.220Z,11.90
2023-01-03T17:06:07.056Z,11.88
2023-01-03T17:07:39.117Z,11.80
2023-01-03T17:09:18.025Z,11.73
2023-01-03T17:10:50.876Z,11.69
2023-01-03T17:12:22.626Z,11.65
2023-01-03T17:13:55.598Z,11.64
2023-01-03T17:15:27.122Z,11.68
2023-01-03T17:16:58.718Z,11.67
2023-01-03T17:18:31.347Z,11.63
2023-01-03T17:20:06.823Z,11.60
2023-01-03T17:21:38.451Z,11.57
2023-01-03T17:23:10.202Z,11.54
2023-01-03T17:24:41.852Z,11.48
2023-01-03T17:26:17.453Z,11.45
2023-01-03T17:27:50.174Z,11.41
2023-01-03T17:29:24.396Z,11.41
2023-01-03T17:30:57.008Z,11.41
2023-01-03T17:32:28.890Z,11.39
2023-01-03T17:34:00.599Z,11.42
2023-01-03T17:35:32.354Z,11.41
2023-01-03T17:37:06.805Z,11.35
2023-01-03T17:38:38.445Z,11.34
2023-01-03T17:40:18.661Z,11.31
2023-01-03T17:42:09.556Z,11.28
2023-01-03T17:43:44.174Z,11.25
2023-01-03T17:45:34.481Z,11.22
2023-01-03T17:47:36.919Z,11.17
2023-01-03T17:49:32.288Z,11.13
2023-01-03T17:51:04.231Z,11.05
2023-01-03T17:52:36.339Z,11.01
2023-01-03T17:54:11.227Z,10.99
2023-01-03T17:55:46.539Z,10.98
2023-01-03T17:57:18.186Z,10.90
2023-01-03T17:58:55.617Z,10.83
2023-01-03T18:00:28.793Z,10.79
2023-01-03T18:02:00.608Z,10.73
2023-01-03T18:03:32.336Z,10.68
2023-01-03T18:05:26.591Z,10.66
2023-01-03T18:06:58.651Z,10.63
2023-01-03T18:08:32.679Z,10.59
2023-01-03T18:10:06.644Z,10.51
2023-01-03T18:11:38.321Z,10.43
2023-01-03T18:13:19.793Z,10.43
2023-01-03T18:14:51.491Z,10.41
2023-01-03T18:16:23.367Z,10.40
2023-01-03T18:17:55.204Z,10.38
2023-01-03T18:19:26.943Z,10.38
2023-01-03T18:20:58.881Z,10.40
2023-01-03T18:22:33.141Z,10.41
2023-01-03T18:24:05.761Z,10.42
2023-01-03T18:25:39.536Z,10.47
2023-01-03T18:27:11.414Z,10.53
2023-01-03T18:28:43.415Z,10.54
2023-01-03T18:30:15.799Z,10.52
2023-01-03T18:31:48.014Z,10.55
2023-01-03T18:33:19.807Z,10.54
2023-01-03T18:34:51.519Z,10.51
2023-01-03T18:36:29.622Z,10.46
2023-01-03T18:38:01.304Z,10.40
2023-01-03T18:39:33.146Z,10.37
2023-01-03T18:41:06.002Z,10.37
2023-01-03T18:42:56.413Z,10.33
2023-01-03T18:44:28.084Z,10.31
2023-01-03T18:45:59.841Z,10.26
2023-01-03T18:47:32.362Z,10.26
2023-01-03T18:49:04.091Z,10.21
2023-01-03T18:50:35.794Z,10.16
2023-01-03T18:52:07.403Z,10.13
2023-01-03T18:53:39.415Z,10.13
2023-01-03T18:55:15.227Z,10.13
2023-01-03T18:56:46.828Z,10.11
2023-01-03T18:58:24.390Z,10.08
2023-01-03T18:59:56.181Z,10.08
2023-01-03T19:01:27.892Z,10.09
2023-01-03T19:03:00.572Z,10.06
2023-01-03T19:04:32.356Z,10.05
2023-01-03T19:06:06.794Z,10.02
2023-01-03T19:07:39.128Z,9.99
2023-01-03T19:09:11.134Z,9.97
2023-01-03T19:10:42.643Z,9.98
2023-01-03T19:12:16.072Z,10.00
2023-01-03T19:13:52.017Z,9.99
2023-01-03T19:15:28.531Z,9.99
2023-01-03T19:17:00.110Z,9.98
2023-01-03T19:18:31.988Z,9.99
2023-01-03T19:20:03.629Z,9.95
2023-01-03T19:21:35.867Z,9.91
2023-01-03T19:23:07.435Z,9.90
2023-01-03T19:24:39.783Z,9.89
2023-01-03T19:26:30.194Z,9.84
2023-01-03T19:28:02.610Z,9.79
2023-01-03T19:29:37.181Z,9.78
2023-01-03T19:31:09.336Z,9.78
2023-01-03T19:32:40.905Z,9.75
2023-01-03T19:34:19.366Z,9.73
2023-01-03T19:35:51.071Z,9.72
2023-01-03T19:37:23.662Z,9.71
2023-01-03T19:38:55.401Z,9.69
2023-01-03T19:40:27.988Z,9.66
2023-01-03T19:42:18.465Z,9.63
2023-01-03T19:43:50.189Z,9.57
2023-01-03T19:45:24.107Z,9.50
2023-01-03T19:46:56.511Z,9.48
2023-01-03T19:48:28.115Z,9.44
2023-01-03T19:49:59.652Z,9.40
2023-01-03T19:51:31.315Z,9.39
2023-01-03T19:53:03.433Z,9.40
2023-01-03T19:54:35.347Z,9.40
2023-01-03T19:56:14.961Z,9.39
2023-01-03T19:57:47.089Z,9.40
2023-01-03T19:59:22.194Z,9.35
2023-01-03T20:00:53.788Z,9.27
2023-01-03T20:02:28.332Z,9.22
2023-01-03T20:04:00.071Z,9.20
2023-01-03T20:05:35.569Z,9.18
2023-01-03T20:07:13.537Z,9.19
2023-01-03T20:08:45.827Z,9.24
2023-01-03T20:10:21.852Z,9.27
2023-01-03T20:11:53.501Z,9.27
2023-01-03T20:13:25.555Z,9.18
2023-01-03T20:15:04.463Z,9.13
2023-01-03T20:16:38.417Z,9.08
2023-01-03T20:18:19.257Z,9.08
2023-01-03T20:19:51.013Z,9.06
2023-01-03T20:21:26.515Z,9.03
2023-01-03T20:23:05.687Z,8.98
2023-01-03T20:24:38.854Z,8.89
2023-01-03T20:26:29.497Z,8.84
2023-01-03T20:28:01.261Z,8.83
2023-01-03T20:29:32.921Z,8.79
2023-01-03T20:31:04.695Z,8.82
2023-01-03T20:32:36.677Z,8.83
2023-01-03T20:34:10.111Z,8.81
2023-01-03T20:37:33.161Z,8.77
2023-01-03T20:39:04.757Z,8.73
2023-01-03T20:40:36.513Z,8.76
2023-01-03T20:42:19.022Z,8.74
2023-01-03T20:43:52.447Z,8.73
2023-01-03T20:45:23.984Z,8.75
2023-01-03T20:46:55.701Z,8.70
2023-01-03T20:48:27.394Z,8.65
2023-01-03T20:49:59.260Z,8.60
2023-01-03T20:51:31.202Z,8.55
2023-01-03T20:53:02.768Z,8.54
2023-01-03T20:54:34.378Z,8.54
2023-01-03T20:56:10.280Z,8.56
2023-01-03T20:57:42.100Z,8.54
2023-01-03T20:59:17.395Z,8.50
2023-01-03T21:00:49.030Z,8.51
2023-01-03T21:02:21.340Z,8.48
2023-01-03T21:03:53.042Z,8.48